sensor_id;sensor_type;location;lat;lon;timestamp;temperature;humidity
22290;DHT22;11313;50.116;8.424;2023-02-01T00:01:41;25.00;40.10
22290;DHT22;11313;50.116;8.424;2023-02-01T00:04:07;25.10;40.20
22290;DHT22;11313;50.116;8.424;2023-02-01T00:06:32;25.10;40.20
22290;DHT22;11313;50.116;8.424;2023-02-01T00:08:58;25.10;40.20
22290;DHT22;11313;50.116;8.424;2023-02-01T00:11:23;25.00;40.10
22290;DHT22;11313;50.116;8.424;2023-02-01T00:13:49;25.10;40.20
22290;DHT22;11313;50.116;8.424;2023-02-01T00:16:23;25.10;40.20
22290;DHT22;11313;50.116;8.424;2023-02-01T00:18:51;25.10;40.30
22290;DHT22;11313;50.116;8.424;2023-02-01T00:21:22;25.00;40.30
22290;DHT22;11313;50.116;8.424;2023-02-01T00:23:47;25.00;40.20
22290;DHT22;11313;50.116;8.424;2023-02-01T00:26:22;25.00;40.20
22290;DHT22;11313;50.116;8.424;2023-02-01T00:28:50;25.00;40.30
22290;DHT22;11313;50.116;8.424;2023-02-01T00:31:16;25.00;40.30
22290;DHT22;11313;50.116;8.424;2023-02-01T00:33:41;25.00;40.30
22290;DHT22;11313;50.116;8.424;2023-02-01T00:36:08;24.90;40.30
22290;DHT22;11313;50.116;8.424;2023-02-01T00:38:36;25.00;40.30
22290;DHT22;11313;50.116;8.424;2023-02-01T00:41:07;24.90;40.30
22290;DHT22;11313;50.116;8.424;2023-02-01T00:43:33;25.00;40.30
22290;DHT22;11313;50.116;8.424;2023-02-01T00:46:00;24.90;40.30
22290;DHT22;11313;50.116;8.424;2023-02-01T00:48:25;25.00;41.00
22290;DHT22;11313;50.116;8.424;2023-02-01T00:50:51;24.90;40.30
22290;DHT22;11313;50.116;8.424;2023-02-01T00:53:17;24.90;40.30
22290;DHT22;11313;50.116;8.424;2023-02-01T00:55:46;25.00;40.40
22290;DHT22;11313;50.116;8.424;2023-02-01T00:58:12;24.90;40.40
22290;DHT22;11313;50.116;8.424;2023-02-01T01:00:37;24.90;40.40
22290;DHT22;11313;50.116;8.424;2023-02-01T01:03:03;24.90;41.00
22290;DHT22;11313;50.116;8.424;2023-02-01T01:05:48;24.90;40.40
22290;DHT22;11313;50.116;8.424;2023-02-01T01:08:15;24.90;40.40
22290;DHT22;11313;50.116;8.424;2023-02-01T01:10:41;24.90;40.40
22290;DHT22;11313;50.116;8.424;2023-02-01T01:13:07;24.90;40.40
22290;DHT22;11313;50.116;8.424;2023-02-01T01:15:39;24.90;40.40
22290;DHT22;11313;50.116;8.424;2023-02-01T01:18:05;24.90;40.40
22290;DHT22;11313;50.116;8.424;2023-02-01T01:20:34;24.90;40.50
22290;DHT22;11313;50.116;8.424;2023-02-01T01:23:00;24.90;40.40
22290;DHT22;11313;50.116;8.424;2023-02-01T01:25:25;24.90;40.50
22290;DHT22;11313;50.116;8.424;2023-02-01T01:27:51;24.90;40.50
22290;DHT22;11313;50.116;8.424;2023-02-01T01:30:16;24.90;40.50
22290;DHT22;11313;50.116;8.424;2023-02-01T01:32:43;24.90;40.50
22290;DHT22;11313;50.116;8.424;2023-02-01T01:35:08;24.90;40.50
22290;DHT22;11313;50.116;8.424;2023-02-01T01:37:34;24.90;40.50
22290;DHT22;11313;50.116;8.424;2023-02-01T01:40:00;24.90;40.50
22290;DHT22;11313;50.116;8.424;2023-02-01T01:42:26;24.90;40.50
22290;DHT22;11313;50.116;8.424;2023-02-01T01:44:57;24.90;40.50
22290;DHT22;11313;50.116;8.424;2023-02-01T01:47:24;24.90;40.50
22290;DHT22;11313;50.116;8.424;2023-02-01T01:49:50;24.90;40.50
22290;DHT22;11313;50.116;8.424;2023-02-01T01:52:16;24.90;40.50
22290;DHT22;11313;50.116;8.424;2023-02-01T01:54:45;24.90;40.50
22290;DHT22;11313;50.116;8.424;2023-02-01T01:57:16;24.90;40.50
22290;DHT22;11313;50.116;8.424;2023-02-01T01:59:47;24.90;40.50
22290;DHT22;11313;50.116;8.424;2023-02-01T02:02:14;24.90;40.40
22290;DHT22;11313;50.116;8.424;2023-02-01T02:04:39;24.90;40.40
22290;DHT22;11313;50.116;8.424;2023-02-01T02:07:14;24.90;40.40
22290;DHT22;11313;50.116;8.424;2023-02-01T02:09:41;24.90;40.40
22290;DHT22;11313;50.116;8.424;2023-02-01T02:12:08;24.90;40.40
22290;DHT22;11313;50.116;8.424;2023-02-01T02:14:34;24.90;40.40
22290;DHT22;11313;50.116;8.424;2023-02-01T02:28:05;24.90;40.30
22290;DHT22;11313;50.116;8.424;2023-02-01T02:30:55;25.00;40.40
22290;DHT22;11313;50.116;8.424;2023-02-01T02:39:21;25.00;40.40
22290;DHT22;11313;50.116;8.424;2023-02-01T02:45:23;25.00;40.30
22290;DHT22;11313;50.116;8.424;2023-02-01T02:51:05;25.00;40.30
22290;DHT22;11313;50.116;8.424;2023-02-01T02:56:47;25.00;40.30
22290;DHT22;11313;50.116;8.424;2023-02-01T02:59:32;25.00;40.30
22290;DHT22;11313;50.116;8.424;2023-02-01T03:02:18;25.00;40.30
22290;DHT22;11313;50.116;8.424;2023-02-01T03:05:03;25.00;40.30
22290;DHT22;11313;50.116;8.424;2023-02-01T03:13:18;25.00;40.30
22290;DHT22;11313;50.116;8.424;2023-02-01T03:19:11;25.00;40.30
22290;DHT22;11313;50.116;8.424;2023-02-01T03:22:01;25.00;40.30
22290;DHT22;11313;50.116;8.424;2023-02-01T03:24:31;25.10;40.30
22290;DHT22;11313;50.116;8.424;2023-02-01T03:27:17;25.00;40.30
22290;DHT22;11313;50.116;8.424;2023-02-01T03:30:30;25.00;40.30
22290;DHT22;11313;50.116;8.424;2023-02-01T03:32:31;25.00;40.30
22290;DHT22;11313;50.116;8.424;2023-02-01T03:35:17;25.00;40.30
22290;DHT22;11313;50.116;8.424;2023-02-01T03:37:46;25.00;40.30
22290;DHT22;11313;50.116;8.424;2023-02-01T03:40:13;25.00;40.30
22290;DHT22;11313;50.116;8.424;2023-02-01T03:42:44;25.00;40.40
22290;DHT22;11313;50.116;8.424;2023-02-01T03:45:27;25.00;40.30
22290;DHT22;11313;50.116;8.424;2023-02-01T03:47:56;25.00;40.40
22290;DHT22;11313;50.116;8.424;2023-02-01T03:50:26;24.90;41.00
22290;DHT22;11313;50.116;8.424;2023-02-01T03:53:07;24.90;40.30
22290;DHT22;11313;50.116;8.424;2023-02-01T03:55:35;25.00;40.40
22290;DHT22;11313;50.116;8.424;2023-02-01T03:58:09;25.00;40.40
22290;DHT22;11313;50.116;8.424;2023-02-01T04:00:35;24.90;40.40
22290;DHT22;11313;50.116;8.424;2023-02-01T04:03:02;24.90;40.30
22290;DHT22;11313;50.116;8.424;2023-02-01T04:05:29;24.90;40.40
22290;DHT22;11313;50.116;8.424;2023-02-01T04:07:55;24.90;40.40
22290;DHT22;11313;50.116;8.424;2023-02-01T04:10:21;24.90;40.40
22290;DHT22;11313;50.116;8.424;2023-02-01T04:12:47;24.90;40.40
22290;DHT22;11313;50.116;8.424;2023-02-01T04:15:12;24.90;40.40
22290;DHT22;11313;50.116;8.424;2023-02-01T04:17:37;24.90;40.40
22290;DHT22;11313;50.116;8.424;2023-02-01T04:20:03;24.90;40.40
22290;DHT22;11313;50.116;8.424;2023-02-01T04:22:30;24.90;40.40
22290;DHT22;11313;50.116;8.424;2023-02-01T04:24:55;24.90;40.50
22290;DHT22;11313;50.116;8.424;2023-02-01T04:27:21;24.90;40.50
22290;DHT22;11313;50.116;8.424;2023-02-01T04:29:46;24.90;41.10
22290;DHT22;11313;50.116;8.424;2023-02-01T04:32:12;24.90;40.50
22290;DHT22;11313;50.116;8.424;2023-02-01T04:34:37;24.90;40.50
22290;DHT22;11313;50.116;8.424;2023-02-01T04:37:03;24.90;40.50
22290;DHT22;11313;50.116;8.424;2023-02-01T04:39:28;24.90;40.60
22290;DHT22;11313;50.116;8.424;2023-02-01T04:41:54;24.90;40.70
22290;DHT22;11313;50.116;8.424;2023-02-01T04:44:20;24.90;40.70
22290;DHT22;11313;50.116;8.424;2023-02-01T04:46:46;24.90;40.60
22290;DHT22;11313;50.116;8.424;2023-02-01T04:49:13;24.90;40.60
22290;DHT22;11313;50.116;8.424;2023-02-01T04:51:39;24.90;40.60
22290;DHT22;11313;50.116;8.424;2023-02-01T05:02:30;25.00;40.60
22290;DHT22;11313;50.116;8.424;2023-02-01T05:04:57;25.00;40.80
22290;DHT22;11313;50.116;8.424;2023-02-01T05:07:23;25.00;40.90
22290;DHT22;11313;50.116;8.424;2023-02-01T05:09:48;25.00;40.90
22290;DHT22;11313;50.116;8.424;2023-02-01T05:12:14;25.00;40.90
22290;DHT22;11313;50.116;8.424;2023-02-01T05:14:58;25.00;40.90
22290;DHT22;11313;50.116;8.424;2023-02-01T05:17:23;24.80;40.90
22290;DHT22;11313;50.116;8.424;2023-02-01T05:19:49;24.90;40.90
22290;DHT22;11313;50.116;8.424;2023-02-01T05:22:15;25.00;41.00
22290;DHT22;11313;50.116;8.424;2023-02-01T05:24:40;24.90;40.90
22290;DHT22;11313;50.116;8.424;2023-02-01T05:27:06;24.90;40.90
22290;DHT22;11313;50.116;8.424;2023-02-01T05:29:31;24.90;40.90
22290;DHT22;11313;50.116;8.424;2023-02-01T05:32:02;24.90;41.00
22290;DHT22;11313;50.116;8.424;2023-02-01T05:34:27;24.90;40.90
22290;DHT22;11313;50.116;8.424;2023-02-01T05:36:53;24.90;40.90
22290;DHT22;11313;50.116;8.424;2023-02-01T05:39:18;24.80;40.90
22290;DHT22;11313;50.116;8.424;2023-02-01T05:41:44;24.90;40.90
22290;DHT22;11313;50.116;8.424;2023-02-01T05:44:10;25.10;41.10
22290;DHT22;11313;50.116;8.424;2023-02-01T05:46:36;24.80;40.90
22290;DHT22;11313;50.116;8.424;2023-02-01T05:49:03;24.90;41.00
22290;DHT22;11313;50.116;8.424;2023-02-01T05:51:29;24.90;41.20
22290;DHT22;11313;50.116;8.424;2023-02-01T05:53:54;24.90;42.00
22290;DHT22;11313;50.116;8.424;2023-02-01T05:56:20;24.90;42.30
22290;DHT22;11313;50.116;8.424;2023-02-01T05:58:45;24.90;42.60
22290;DHT22;11313;50.116;8.424;2023-02-01T06:01:11;24.90;42.60
22290;DHT22;11313;50.116;8.424;2023-02-01T06:03:37;25.00;42.50
22290;DHT22;11313;50.116;8.424;2023-02-01T06:06:09;25.00;42.40
22290;DHT22;11313;50.116;8.424;2023-02-01T06:08:35;25.00;42.40
22290;DHT22;11313;50.116;8.424;2023-02-01T06:11:03;25.00;42.40
22290;DHT22;11313;50.116;8.424;2023-02-01T06:13:29;25.00;42.30
22290;DHT22;11313;50.116;8.424;2023-02-01T06:15:55;25.00;42.10
22290;DHT22;11313;50.116;8.424;2023-02-01T06:18:23;25.00;42.10
22290;DHT22;11313;50.116;8.424;2023-02-01T06:20:56;25.00;42.00
22290;DHT22;11313;50.116;8.424;2023-02-01T06:23:24;25.00;41.90
22290;DHT22;11313;50.116;8.424;2023-02-01T06:25:57;25.00;41.80
22290;DHT22;11313;50.116;8.424;2023-02-01T06:28:24;25.00;42.00
22290;DHT22;11313;50.116;8.424;2023-02-01T06:30:50;25.00;42.10
22290;DHT22;11313;50.116;8.424;2023-02-01T06:33:16;24.90;42.10
22290;DHT22;11313;50.116;8.424;2023-02-01T06:35:43;25.00;42.10
22290;DHT22;11313;50.116;8.424;2023-02-01T06:38:12;25.00;42.10
22290;DHT22;11313;50.116;8.424;2023-02-01T06:40:39;25.10;42.10
22290;DHT22;11313;50.116;8.424;2023-02-01T06:43:06;25.00;42.00
22290;DHT22;11313;50.116;8.424;2023-02-01T06:45:31;25.00;42.00
22290;DHT22;11313;50.116;8.424;2023-02-01T06:47:58;25.00;42.00
22290;DHT22;11313;50.116;8.424;2023-02-01T06:50:28;25.00;42.00
22290;DHT22;11313;50.116;8.424;2023-02-01T06:52:53;25.10;42.00
22290;DHT22;11313;50.116;8.424;2023-02-01T06:55:20;25.10;42.00
22290;DHT22;11313;50.116;8.424;2023-02-01T06:57:45;25.00;41.90
22290;DHT22;11313;50.116;8.424;2023-02-01T07:00:11;25.00;41.90
22290;DHT22;11313;50.116;8.424;2023-02-01T07:02:39;25.10;41.90
22290;DHT22;11313;50.116;8.424;2023-02-01T07:05:05;25.10;41.90
22290;DHT22;11313;50.116;8.424;2023-02-01T07:07:33;25.00;41.80
22290;DHT22;11313;50.116;8.424;2023-02-01T07:09:58;24.90;41.70
22290;DHT22;11313;50.116;8.424;2023-02-01T07:12:24;25.00;41.80
22290;DHT22;11313;50.116;8.424;2023-02-01T07:14:50;25.00;41.80
22290;DHT22;11313;50.116;8.424;2023-02-01T07:17:15;25.00;41.80
22290;DHT22;11313;50.116;8.424;2023-02-01T07:19:48;25.00;41.80
22290;DHT22;11313;50.116;8.424;2023-02-01T07:22:17;24.90;41.70
22290;DHT22;11313;50.116;8.424;2023-02-01T07:24:42;25.00;41.70
22290;DHT22;11313;50.116;8.424;2023-02-01T07:27:08;25.00;41.70
22290;DHT22;11313;50.116;8.424;2023-02-01T07:29:33;25.00;41.70
22290;DHT22;11313;50.116;8.424;2023-02-01T07:31:59;25.00;41.70
22290;DHT22;11313;50.116;8.424;2023-02-01T07:34:25;25.00;41.60
22290;DHT22;11313;50.116;8.424;2023-02-01T07:36:51;25.00;41.70
22290;DHT22;11313;50.116;8.424;2023-02-01T07:39:17;24.90;41.60
22290;DHT22;11313;50.116;8.424;2023-02-01T07:41:42;25.00;41.60
22290;DHT22;11313;50.116;8.424;2023-02-01T07:44:08;24.90;41.60
22290;DHT22;11313;50.116;8.424;2023-02-01T07:46:33;25.00;41.60
22290;DHT22;11313;50.116;8.424;2023-02-01T07:48:59;24.90;41.60
22290;DHT22;11313;50.116;8.424;2023-02-01T07:51:24;25.00;41.60
22290;DHT22;11313;50.116;8.424;2023-02-01T07:53:50;24.90;41.50
22290;DHT22;11313;50.116;8.424;2023-02-01T07:56:18;24.90;41.50
22290;DHT22;11313;50.116;8.424;2023-02-01T07:58:50;25.00;41.60
22290;DHT22;11313;50.116;8.424;2023-02-01T08:01:22;24.90;41.50
22290;DHT22;11313;50.116;8.424;2023-02-01T08:03:54;24.90;41.50
22290;DHT22;11313;50.116;8.424;2023-02-01T08:06:21;24.90;41.50
22290;DHT22;11313;50.116;8.424;2023-02-01T08:08:51;24.80;41.50
22290;DHT22;11313;50.116;8.424;2023-02-01T08:11:19;24.90;41.50
22290;DHT22;11313;50.116;8.424;2023-02-01T08:13:45;24.80;41.50
22290;DHT22;11313;50.116;8.424;2023-02-01T08:16:12;24.90;42.20
22290;DHT22;11313;50.116;8.424;2023-02-01T08:18:39;24.90;41.50
22290;DHT22;11313;50.116;8.424;2023-02-01T08:21:05;24.90;41.50
22290;DHT22;11313;50.116;8.424;2023-02-01T08:23:33;24.90;41.50
22290;DHT22;11313;50.116;8.424;2023-02-01T08:26:13;24.90;41.50
22290;DHT22;11313;50.116;8.424;2023-02-01T08:28:42;24.90;41.40
22290;DHT22;11313;50.116;8.424;2023-02-01T08:31:11;24.90;41.20
22290;DHT22;11313;50.116;8.424;2023-02-01T08:33:36;24.90;41.00
22290;DHT22;11313;50.116;8.424;2023-02-01T08:36:07;24.90;41.00
22290;DHT22;11313;50.116;8.424;2023-02-01T08:38:34;24.90;40.80
22290;DHT22;11313;50.116;8.424;2023-02-01T08:41:04;24.80;40.60
22290;DHT22;11313;50.116;8.424;2023-02-01T08:43:30;24.80;40.60
22290;DHT22;11313;50.116;8.424;2023-02-01T08:45:56;24.80;40.40
22290;DHT22;11313;50.116;8.424;2023-02-01T08:48:22;24.80;40.30
22290;DHT22;11313;50.116;8.424;2023-02-01T08:50:47;24.80;40.20
22290;DHT22;11313;50.116;8.424;2023-02-01T08:53:12;24.80;40.10
22290;DHT22;11313;50.116;8.424;2023-02-01T08:55:39;24.80;40.10
22290;DHT22;11313;50.116;8.424;2023-02-01T08:58:05;24.80;40.00
22290;DHT22;11313;50.116;8.424;2023-02-01T09:00:30;24.70;39.80
22290;DHT22;11313;50.116;8.424;2023-02-01T09:02:55;24.70;39.80
22290;DHT22;11313;50.116;8.424;2023-02-01T09:05:21;24.80;39.80
22290;DHT22;11313;50.116;8.424;2023-02-01T09:07:48;24.80;39.70
22290;DHT22;11313;50.116;8.424;2023-02-01T09:10:14;24.80;39.80
22290;DHT22;11313;50.116;8.424;2023-02-01T09:12:39;24.80;40.00
22290;DHT22;11313;50.116;8.424;2023-02-01T09:15:05;24.80;40.00
22290;DHT22;11313;50.116;8.424;2023-02-01T09:17:32;24.80;40.00
22290;DHT22;11313;50.116;8.424;2023-02-01T09:19:58;24.80;40.10
22290;DHT22;11313;50.116;8.424;2023-02-01T09:22:26;24.80;40.10
22290;DHT22;11313;50.116;8.424;2023-02-01T09:24:52;24.80;40.10
22290;DHT22;11313;50.116;8.424;2023-02-01T09:27:18;24.80;40.10
22290;DHT22;11313;50.116;8.424;2023-02-01T09:29:43;24.80;40.10
22290;DHT22;11313;50.116;8.424;2023-02-01T09:32:09;24.80;40.10
22290;DHT22;11313;50.116;8.424;2023-02-01T09:34:35;24.80;40.10
22290;DHT22;11313;50.116;8.424;2023-02-01T09:37:01;24.80;40.20
22290;DHT22;11313;50.116;8.424;2023-02-01T09:39:27;24.80;40.10
22290;DHT22;11313;50.116;8.424;2023-02-01T09:45:21;24.80;40.10
22290;DHT22;11313;50.116;8.424;2023-02-01T09:47:53;24.80;40.10
22290;DHT22;11313;50.116;8.424;2023-02-01T09:50:33;24.80;40.20
22290;DHT22;11313;50.116;8.424;2023-02-01T09:53:02;24.90;40.20
22290;DHT22;11313;50.116;8.424;2023-02-01T09:55:38;24.90;40.20
22290;DHT22;11313;50.116;8.424;2023-02-01T10:00:52;24.90;40.20
22290;DHT22;11313;50.116;8.424;2023-02-01T10:03:17;24.90;40.20
22290;DHT22;11313;50.116;8.424;2023-02-01T10:06:10;24.90;40.20
22290;DHT22;11313;50.116;8.424;2023-02-01T10:09:14;24.90;40.20
22290;DHT22;11313;50.116;8.424;2023-02-01T10:15:05;24.90;40.20
22290;DHT22;11313;50.116;8.424;2023-02-01T10:21:01;24.90;40.10
22290;DHT22;11313;50.116;8.424;2023-02-01T10:26:33;24.90;40.10
22290;DHT22;11313;50.116;8.424;2023-02-01T10:29:04;24.90;40.10
22290;DHT22;11313;50.116;8.424;2023-02-01T10:31:38;24.90;40.10
22290;DHT22;11313;50.116;8.424;2023-02-01T10:34:19;24.90;40.10
22290;DHT22;11313;50.116;8.424;2023-02-01T10:39:59;24.90;40.00
22290;DHT22;11313;50.116;8.424;2023-02-01T10:42:29;24.90;40.00
22290;DHT22;11313;50.116;8.424;2023-02-01T10:44:58;25.00;40.10
22290;DHT22;11313;50.116;8.424;2023-02-01T10:47:25;25.00;40.00
22290;DHT22;11313;50.116;8.424;2023-02-01T10:50:04;25.00;40.00
22290;DHT22;11313;50.116;8.424;2023-02-01T10:52:45;25.00;40.00
22290;DHT22;11313;50.116;8.424;2023-02-01T10:58:18;24.90;40.00
22290;DHT22;11313;50.116;8.424;2023-02-01T11:03:40;25.00;40.00
22290;DHT22;11313;50.116;8.424;2023-02-01T11:08:48;25.00;40.00
22290;DHT22;11313;50.116;8.424;2023-02-01T11:11:15;25.00;40.00
22290;DHT22;11313;50.116;8.424;2023-02-01T11:13:41;25.00;40.00
22290;DHT22;11313;50.116;8.424;2023-02-01T11:16:11;25.00;39.90
22290;DHT22;11313;50.116;8.424;2023-02-01T11:18:38;25.00;40.00
22290;DHT22;11313;50.116;8.424;2023-02-01T11:21:08;25.00;39.90
22290;DHT22;11313;50.116;8.424;2023-02-01T11:23:40;25.00;39.90
22290;DHT22;11313;50.116;8.424;2023-02-01T11:26:19;25.10;39.90
22290;DHT22;11313;50.116;8.424;2023-02-01T11:28:54;25.10;39.90
22290;DHT22;11313;50.116;8.424;2023-02-01T11:31:22;25.00;39.90
22290;DHT22;11313;50.116;8.424;2023-02-01T11:34:34;25.00;39.90
22290;DHT22;11313;50.116;8.424;2023-02-01T11:36:40;25.00;39.90
22290;DHT22;11313;50.116;8.424;2023-02-01T11:41:59;25.10;39.90
22290;DHT22;11313;50.116;8.424;2023-02-01T11:47:21;25.00;40.50
22290;DHT22;11313;50.116;8.424;2023-02-01T11:49:49;25.10;39.90
22290;DHT22;11313;50.116;8.424;2023-02-01T11:55:05;25.00;39.80
22290;DHT22;11313;50.116;8.424;2023-02-01T12:03:34;25.00;39.80
22290;DHT22;11313;50.116;8.424;2023-02-01T12:09:13;25.00;39.80
22290;DHT22;11313;50.116;8.424;2023-02-01T12:12:07;25.00;39.90
22290;DHT22;11313;50.116;8.424;2023-02-01T12:20:53;25.00;39.90
22290;DHT22;11313;50.116;8.424;2023-02-01T12:29:10;24.90;39.90
22290;DHT22;11313;50.116;8.424;2023-02-01T12:34:49;24.50;33.60
22290;DHT22;11313;50.116;8.424;2023-02-01T12:43:12;23.60;32.80
22290;DHT22;11313;50.116;8.424;2023-02-01T13:01:26;23.20;33.70
22290;DHT22;11313;50.116;8.424;2023-02-01T13:08:16;22.70;32.90
22290;DHT22;11313;50.116;8.424;2023-02-01T13:11:04;22.40;33.30
22290;DHT22;11313;50.116;8.424;2023-02-01T13:18:04;22.20;33.00
22290;DHT22;11313;50.116;8.424;2023-02-01T13:32:20;22.00;34.00
22290;DHT22;11313;50.116;8.424;2023-02-01T14:05:55;22.30;35.20
22290;DHT22;11313;50.116;8.424;2023-02-01T14:08:40;22.40;35.70
22290;DHT22;11313;50.116;8.424;2023-02-01T14:11:06;22.50;35.90
22290;DHT22;11313;50.116;8.424;2023-02-01T14:13:36;22.60;36.00
22290;DHT22;11313;50.116;8.424;2023-02-01T14:21:27;22.90;36.40
22290;DHT22;11313;50.116;8.424;2023-02-01T14:26:24;23.10;36.60
22290;DHT22;11313;50.116;8.424;2023-02-01T14:28:54;23.10;36.70
22290;DHT22;11313;50.116;8.424;2023-02-01T14:34:02;23.30;36.80
22290;DHT22;11313;50.116;8.424;2023-02-01T14:36:50;23.30;36.90
22290;DHT22;11313;50.116;8.424;2023-02-01T14:40:05;23.40;36.90
22290;DHT22;11313;50.116;8.424;2023-02-01T14:47:48;23.60;37.10
22290;DHT22;11313;50.116;8.424;2023-02-01T14:56:00;23.80;37.20
22290;DHT22;11313;50.116;8.424;2023-02-01T14:58:57;23.80;37.20
22290;DHT22;11313;50.116;8.424;2023-02-01T15:01:28;23.90;37.10
22290;DHT22;11313;50.116;8.424;2023-02-01T15:04:15;23.90;37.20
22290;DHT22;11313;50.116;8.424;2023-02-01T15:06:53;23.90;37.10
22290;DHT22;11313;50.116;8.424;2023-02-01T15:14:35;24.10;37.30
22290;DHT22;11313;50.116;8.424;2023-02-01T15:17:02;24.10;37.30
22290;DHT22;11313;50.116;8.424;2023-02-01T15:19:29;24.10;37.30
22290;DHT22;11313;50.116;8.424;2023-02-01T15:21:57;24.10;37.30
22290;DHT22;11313;50.116;8.424;2023-02-01T15:24:29;24.20;37.30
22290;DHT22;11313;50.116;8.424;2023-02-01T15:26:55;24.20;37.30
22290;DHT22;11313;50.116;8.424;2023-02-01T15:29:23;24.20;37.40
22290;DHT22;11313;50.116;8.424;2023-02-01T15:31:53;24.20;37.30
22290;DHT22;11313;50.116;8.424;2023-02-01T15:34:20;24.30;37.40
22290;DHT22;11313;50.116;8.424;2023-02-01T15:36:46;24.30;37.40
22290;DHT22;11313;50.116;8.424;2023-02-01T15:39:21;24.30;37.50
22290;DHT22;11313;50.116;8.424;2023-02-01T15:41:54;24.30;37.50
22290;DHT22;11313;50.116;8.424;2023-02-01T15:44:29;24.30;37.50
22290;DHT22;11313;50.116;8.424;2023-02-01T15:46:56;24.30;37.50
22290;DHT22;11313;50.116;8.424;2023-02-01T15:49:36;24.30;37.60
22290;DHT22;11313;50.116;8.424;2023-02-01T20:21:39;24.70;39.20
